createdAt,value
2019-02-22T00:00:23.651Z,97.23
2019-02-22T00:01:23.722Z,97.13
2019-02-22T00:02:23.645Z,97.33
2019-02-22T00:03:23.650Z,96.97
2019-02-22T00:04:23.612Z,97.28
2019-02-22T00:05:23.616Z,97.28
2019-02-22T00:06:23.585Z,97.58
2019-02-22T00:07:23.592Z,97.28
2019-02-22T00:08:23.563Z,97.07
2019-02-22T00:09:23.746Z,97.28
2019-02-22T00:10:23.545Z,97.28
2019-02-22T00:11:23.530Z,97.79
2019-02-22T00:12:23.583Z,97.89
2019-02-22T00:13:23.513Z,97.89
2019-02-22T00:14:23.499Z,97.99
2019-02-22T00:15:23.539Z,97.89
2019-02-22T00:16:23.475Z,97.79
2019-02-22T00:17:23.464Z,97.64
2019-02-22T00:18:23.460Z,97.79
2019-02-22T00:19:23.443Z,97.79
2019-02-22T00:20:23.465Z,97.64
2019-02-22T00:21:23.417Z,97.38
2019-02-22T00:22:23.407Z,97.74
2019-02-22T00:23:23.425Z,97.74
2019-02-22T00:24:23.379Z,97.79
2019-02-22T00:25:24.097Z,97.79
2019-02-22T00:26:23.424Z,97.79
2019-02-22T00:27:23.349Z,97.85
2019-02-22T00:28:23.368Z,97.74
2019-02-22T00:29:23.371Z,97.85
2019-02-22T00:30:23.332Z,97.74
2019-02-22T00:31:23.309Z,97.85
2019-02-22T00:32:24.101Z,97.89
2019-02-22T00:33:23.603Z,97.79
2019-02-22T00:34:23.348Z,97.74
2019-02-22T00:35:23.337Z,97.48
2019-02-22T00:36:23.473Z,97.54
2019-02-22T00:37:23.243Z,97.79
2019-02-22T00:38:23.306Z,97.69
2019-02-22T00:39:23.303Z,97.69
2019-02-22T00:40:23.210Z,97.58
2019-02-22T00:41:23.203Z,97.44
2019-02-22T00:42:23.183Z,97.69
2019-02-22T00:43:23.200Z,97.33
2019-02-22T00:44:23.175Z,97.69
2019-02-22T00:45:23.172Z,97.79
2019-02-22T00:46:23.234Z,97.79
2019-02-22T00:47:23.128Z,97.64
2019-02-22T00:48:23.136Z,97.79
2019-02-22T00:49:23.328Z,97.48
2019-02-22T00:50:23.088Z,97.48
2019-02-22T00:51:23.080Z,97.89
2019-02-22T00:52:23.125Z,97.79
2019-02-22T00:53:23.062Z,97.89
2019-02-22T00:54:23.070Z,97.99
2019-02-22T00:55:23.157Z,97.58
2019-02-22T00:56:23.045Z,97.58
2019-02-22T00:57:23.114Z,98.30
2019-02-22T00:58:23.076Z,97.99
2019-02-22T00:59:22.997Z,97.85
2019-02-22T01:00:23.032Z,98.36
2019-02-22T01:01:23.001Z,98.30
2019-02-22T01:02:22.967Z,97.38
2019-02-22T01:03:23.039Z,97.64
2019-02-22T01:04:22.932Z,97.54
2019-02-22T01:05:22.920Z,97.89
2019-02-22T01:06:23.633Z,97.38
2019-02-22T01:07:22.916Z,97.58
2019-02-22T01:08:23.083Z,97.38
2019-02-22T01:09:22.933Z,97.79
2019-02-22T01:10:30.695Z,97.79
2019-02-22T01:11:23.861Z,97.74
2019-02-22T01:12:22.916Z,97.64
2019-02-22T01:13:22.847Z,97.95
2019-02-22T01:14:22.856Z,97.95
2019-02-22T01:15:22.932Z,97.89
2019-02-22T01:16:22.979Z,97.85
2019-02-22T01:17:22.792Z,97.79
2019-02-22T01:18:22.795Z,97.79
2019-02-22T01:19:22.774Z,97.48
2019-02-22T01:20:22.778Z,97.48
2019-02-22T01:21:22.766Z,97.28
2019-02-22T01:22:22.808Z,97.99
2019-02-22T01:23:22.802Z,97.99
2019-02-22T01:24:22.702Z,97.69
2019-02-22T01:25:22.694Z,97.79
2019-02-22T01:26:22.725Z,97.99
2019-02-22T01:27:22.698Z,97.79
2019-02-22T01:28:22.660Z,97.99
2019-02-22T01:29:22.661Z,97.79
2019-02-22T01:30:22.651Z,97.69
2019-02-22T01:31:22.635Z,97.69
2019-02-22T01:32:22.915Z,98.30
2019-02-22T01:33:22.609Z,97.89
2019-02-22T01:34:22.592Z,97.58
2019-02-22T01:35:22.861Z,97.58
2019-02-22T01:36:22.570Z,97.58
2019-02-22T01:37:22.589Z,97.58
2019-02-22T01:38:22.789Z,97.79
2019-02-22T01:39:22.557Z,97.69
2019-02-22T01:40:22.527Z,97.58
2019-02-22T01:41:22.593Z,97.58
2019-02-22T01:42:22.560Z,97.58
2019-02-22T01:43:22.494Z,97.89
2019-02-22T01:44:29.574Z,97.79
2019-02-22T01:45:22.476Z,97.58
2019-02-22T01:46:22.461Z,97.58
2019-02-22T01:47:22.455Z,97.79
2019-02-22T01:48:22.476Z,98.30
2019-02-22T01:49:22.423Z,97.38
2019-02-22T01:50:22.411Z,98.30
2019-02-22T01:51:22.415Z,97.89
2019-02-22T01:52:22.392Z,97.89
2019-02-22T01:53:22.391Z,98.30
2019-02-22T01:54:22.446Z,97.89
2019-02-22T01:55:22.366Z,97.99
2019-02-22T01:56:22.343Z,97.89
2019-02-22T01:57:23.143Z,97.89
2019-02-22T01:58:22.338Z,97.89
2019-02-22T01:59:22.316Z,98.10
2019-02-22T02:00:22.337Z,98.10
2019-02-22T02:01:23.154Z,98.20
2019-02-22T02:02:22.305Z,98.41
2019-02-22T02:03:22.271Z,98.61
2019-02-22T02:04:22.264Z,98.10
2019-02-22T02:05:22.339Z,97.99
2019-02-22T02:06:22.245Z,98.10
2019-02-22T02:07:22.253Z,97.89
2019-02-22T02:08:22.243Z,97.89
2019-02-22T02:09:22.208Z,97.99
2019-02-22T02:10:22.202Z,97.89
2019-02-22T02:11:22.190Z,98.10
2019-02-22T02:12:22.225Z,97.99
2019-02-22T02:13:22.172Z,98.20
2019-02-22T02:14:22.168Z,97.89
2019-02-22T02:15:22.134Z,97.89
2019-02-22T02:16:22.125Z,97.89
2019-02-22T02:17:22.113Z,98.20
2019-02-22T02:18:22.133Z,98.30
2019-02-22T02:19:22.100Z,98.61
2019-02-22T02:20:22.172Z,98.51
2019-02-22T02:21:22.237Z,98.30
2019-02-22T02:22:22.057Z,98.20
2019-02-22T02:23:22.071Z,98.30
2019-02-22T02:24:22.121Z,98.61
2019-02-22T02:25:22.023Z,98.51
2019-02-22T02:26:22.023Z,98.10
2019-02-22T02:27:22.013Z,98.30
2019-02-22T02:28:21.999Z,98.10
2019-02-22T02:29:22.016Z,98.10
2019-02-22T02:30:21.967Z,98.41
2019-02-22T02:31:21.962Z,98.61
2019-02-22T02:32:21.948Z,98.10
2019-02-22T02:33:21.943Z,98.14
2019-02-22T02:34:21.922Z,98.20
2019-02-22T02:35:21.961Z,98.30
2019-02-22T02:36:21.927Z,98.51
2019-02-22T02:37:21.937Z,98.10
2019-02-22T02:38:21.875Z,98.20
2019-02-22T02:39:21.869Z,98.61
2019-02-22T02:40:21.899Z,98.20
2019-02-22T02:41:21.848Z,97.89
2019-02-22T02:42:21.830Z,98.41
2019-02-22T02:43:21.853Z,98.20
2019-02-22T02:44:21.850Z,97.89
2019-02-22T02:45:21.807Z,98.20
2019-02-22T02:46:21.812Z,98.20
2019-02-22T02:47:21.785Z,98.25
2019-02-22T02:48:21.941Z,97.94
2019-02-22T02:49:21.757Z,97.99
2019-02-22T02:50:21.748Z,98.10
2019-02-22T02:51:21.762Z,98.30
2019-02-22T02:52:21.721Z,98.10
2019-02-22T02:53:21.736Z,97.79
2019-02-22T02:54:21.692Z,97.89
2019-02-22T02:55:21.684Z,97.99
2019-02-22T02:56:21.682Z,97.69
2019-02-22T02:57:21.666Z,97.99
2019-02-22T02:58:21.653Z,97.58
2019-02-22T02:59:21.665Z,98.41
2019-02-22T03:00:21.647Z,97.89
2019-02-22T03:01:21.627Z,97.79
2019-02-22T03:02:21.627Z,97.79
2019-02-22T03:03:21.620Z,97.89
2019-02-22T03:04:21.669Z,97.89
2019-02-22T03:05:21.590Z,98.20
2019-02-22T03:06:21.602Z,98.30
2019-02-22T03:07:21.588Z,97.99
2019-02-22T03:08:21.540Z,98.10
2019-02-22T03:09:21.560Z,98.20
2019-02-22T03:10:21.525Z,98.30
2019-02-22T03:11:21.525Z,98.20
2019-02-22T03:12:21.510Z,97.89
2019-02-22T03:13:21.490Z,98.10
2019-02-22T03:14:21.507Z,97.99
2019-02-22T03:15:21.461Z,97.58
2019-02-22T03:16:21.444Z,98.10
2019-02-22T03:17:21.435Z,98.20
2019-02-22T03:18:21.456Z,98.10
2019-02-22T03:19:21.446Z,97.99
2019-02-22T03:20:21.403Z,97.99
2019-02-22T03:21:21.389Z,97.99
2019-02-22T03:22:21.378Z,98.10
2019-02-22T03:23:21.378Z,97.89
2019-02-22T03:24:21.365Z,97.89
2019-02-22T03:25:21.401Z,97.99
2019-02-22T03:26:21.339Z,97.94
2019-02-22T03:27:21.358Z,97.89
2019-02-22T03:28:21.341Z,98.04
2019-02-22T03:29:21.325Z,97.89
2019-02-22T03:30:21.346Z,98.30
2019-02-22T03:31:21.536Z,97.89
2019-02-22T03:32:21.276Z,98.10
2019-02-22T03:33:21.280Z,97.89
2019-02-22T03:34:21.359Z,97.79
2019-02-22T03:35:21.244Z,97.89
2019-02-22T03:36:22.159Z,98.20
2019-02-22T03:37:21.358Z,98.25
2019-02-22T03:38:21.199Z,98.25
2019-02-22T03:39:21.246Z,97.99
2019-02-22T03:40:21.196Z,98.25
2019-02-22T03:41:31.876Z,98.14
2019-02-22T03:42:22.186Z,98.10
2019-02-22T03:43:21.145Z,98.04
2019-02-22T03:44:21.136Z,97.89
2019-02-22T03:45:21.147Z,98.10
2019-02-22T03:46:21.120Z,98.66
2019-02-22T03:47:21.118Z,98.14
2019-02-22T03:48:21.091Z,98.10
2019-02-22T03:49:21.081Z,98.66
2019-02-22T03:50:21.065Z,98.45
2019-02-22T03:51:21.075Z,97.99
2019-02-22T03:52:21.049Z,98.25
2019-02-22T03:53:21.031Z,98.10
2019-02-22T03:54:21.105Z,98.30
2019-02-22T03:55:21.019Z,98.10
2019-02-22T03:56:21.025Z,98.10
2019-02-22T03:57:21.002Z,98.30
2019-02-22T03:58:20.974Z,98.04
2019-02-22T03:59:20.966Z,98.20
2019-02-22T04:00:20.964Z,98.20
2019-02-22T04:01:21.670Z,98.10
2019-02-22T04:02:20.965Z,98.20
2019-02-22T04:03:20.928Z,98.30
2019-02-22T04:04:20.957Z,98.51
2019-02-22T04:05:20.955Z,98.10
2019-02-22T04:06:20.907Z,98.10
2019-02-22T04:07:20.906Z,98.10
2019-02-22T04:08:20.865Z,98.41
2019-02-22T04:09:21.038Z,98.20
2019-02-22T04:10:20.838Z,98.30
2019-02-22T04:11:20.836Z,98.14
2019-02-22T04:12:20.830Z,98.61
2019-02-22T04:13:20.809Z,98.61
2019-02-22T04:14:20.840Z,98.61
2019-02-22T04:15:20.783Z,97.94
2019-02-22T04:16:20.780Z,98.30
2019-02-22T04:17:20.763Z,98.61
2019-02-22T04:18:20.780Z,98.61
2019-02-22T04:19:20.739Z,98.51
2019-02-22T04:20:20.892Z,98.30
2019-02-22T04:21:20.726Z,98.10
2019-02-22T04:22:20.727Z,98.51
2019-02-22T04:23:20.717Z,98.20
2019-02-22T04:24:20.702Z,98.10
2019-02-22T04:25:20.677Z,98.14
2019-02-22T04:26:20.702Z,97.69
2019-02-22T04:27:20.653Z,97.99
2019-02-22T04:28:20.668Z,97.83
2019-02-22T04:29:20.670Z,97.89
2019-02-22T04:30:20.615Z,98.20
2019-02-22T04:31:20.628Z,98.14
2019-02-22T04:32:20.596Z,97.69
2019-02-22T04:33:20.587Z,98.20
2019-02-22T04:34:20.581Z,98.45
2019-02-22T04:35:20.589Z,98.30
2019-02-22T04:36:20.567Z,97.89
2019-02-22T04:37:20.548Z,98.20
2019-02-22T04:38:20.532Z,98.04
2019-02-22T04:39:20.518Z,97.89
2019-02-22T04:40:20.554Z,97.99
2019-02-22T04:41:20.524Z,97.83
2019-02-22T04:42:20.490Z,97.83
2019-02-22T04:43:20.471Z,97.89
2019-02-22T04:44:20.475Z,97.99
2019-02-22T04:45:20.508Z,98.04
2019-02-22T04:46:20.482Z,97.79
2019-02-22T04:47:20.435Z,98.20
2019-02-22T04:48:20.440Z,98.41
2019-02-22T04:49:20.416Z,98.35
2019-02-22T04:50:20.537Z,97.99
2019-02-22T04:51:20.407Z,98.10
2019-02-22T04:52:20.382Z,98.04
2019-02-22T04:53:20.400Z,98.14
2019-02-22T04:54:20.347Z,97.99
2019-02-22T04:55:20.340Z,97.89
2019-02-22T04:56:20.326Z,98.30
2019-02-22T04:57:20.323Z,98.14
2019-02-22T04:58:20.325Z,98.30
2019-02-22T04:59:20.314Z,98.61
2019-02-22T05:00:20.282Z,99.07
2019-02-22T05:01:20.270Z,98.10
2019-02-22T05:02:20.260Z,98.30
2019-02-22T05:03:20.252Z,98.61
2019-02-22T05:04:20.269Z,99.02
2019-02-22T05:05:20.256Z,98.51
2019-02-22T05:06:20.217Z,98.30
2019-02-22T05:07:20.212Z,98.30
2019-02-22T05:08:20.201Z,98.10
2019-02-22T05:09:20.200Z,98.20
2019-02-22T05:10:20.234Z,97.99
2019-02-22T05:11:20.165Z,98.10
2019-02-22T05:12:20.152Z,98.10
2019-02-22T05:13:20.186Z,98.10
2019-02-22T05:14:20.132Z,98.10
2019-02-22T05:15:20.146Z,98.30
2019-02-22T05:16:20.123Z,98.41
2019-02-22T05:17:20.090Z,98.20
2019-02-22T05:18:20.093Z,98.20
2019-02-22T05:19:20.091Z,98.30
2019-02-22T05:20:20.209Z,98.20
2019-02-22T05:21:20.061Z,97.99
2019-02-22T05:22:20.038Z,97.99
2019-02-22T05:23:20.026Z,97.99
2019-02-22T05:24:20.041Z,98.10
2019-02-22T05:25:20.009Z,98.04
2019-02-22T05:26:20.001Z,98.10
2019-02-22T05:27:19.984Z,97.89
2019-02-22T05:28:19.990Z,97.99
2019-02-22T05:29:19.991Z,97.99
2019-02-22T05:30:19.946Z,98.20
2019-02-22T05:31:19.937Z,97.89
2019-02-22T05:32:19.959Z,97.63
2019-02-22T05:33:19.929Z,97.69
2019-02-22T05:34:19.904Z,98.20
2019-02-22T05:35:19.923Z,98.45
2019-02-22T05:36:20.801Z,97.79
2019-02-22T05:37:19.873Z,98.14
2019-02-22T05:38:19.860Z,98.04
2019-02-22T05:39:19.953Z,97.99
2019-02-22T05:40:19.838Z,97.99
2019-02-22T05:41:19.834Z,97.89
2019-02-22T05:42:22.897Z,97.99
2019-02-22T05:43:19.808Z,98.10
2019-02-22T05:44:19.802Z,97.79
2019-02-22T05:45:19.819Z,97.89
2019-02-22T05:46:19.767Z,97.99
2019-02-22T05:47:19.814Z,97.79
2019-02-22T05:48:19.744Z,97.79
2019-02-22T05:49:22.118Z,97.99
2019-02-22T05:50:19.773Z,97.79
2019-02-22T05:51:19.747Z,97.73
2019-02-22T05:52:19.705Z,97.89
2019-02-22T05:53:19.689Z,98.45
2019-02-22T05:54:19.677Z,98.20
2019-02-22T05:55:19.682Z,98.10
2019-02-22T05:56:19.691Z,98.30
2019-02-22T05:57:19.668Z,98.10
2019-02-22T05:58:19.645Z,98.10
2019-02-22T05:59:19.617Z,98.10
2019-02-22T06:00:19.623Z,98.10
2019-02-22T06:01:19.625Z,98.20
2019-02-22T06:02:19.623Z,97.99
2019-02-22T06:03:19.579Z,98.10
2019-02-22T06:04:19.573Z,97.89
2019-02-22T06:05:19.572Z,98.10
2019-02-22T06:06:19.591Z,98.10
2019-02-22T06:07:19.610Z,98.41
2019-02-22T06:08:19.549Z,98.30
2019-02-22T06:09:19.576Z,98.20
2019-02-22T06:10:19.559Z,97.99
2019-02-22T06:11:19.494Z,98.04
2019-02-22T06:12:19.511Z,97.99
2019-02-22T06:13:19.499Z,98.25
2019-02-22T06:14:19.462Z,98.20
2019-02-22T06:15:19.471Z,98.04
2019-02-22T06:16:19.433Z,98.10
2019-02-22T06:17:19.433Z,98.25
2019-02-22T06:18:19.435Z,98.35
2019-02-22T06:19:19.447Z,98.51
2019-02-22T06:20:19.413Z,98.76
2019-02-22T06:21:19.385Z,98.51
2019-02-22T06:22:28.945Z,99.07
2019-02-22T06:23:20.368Z,98.82
2019-02-22T06:24:19.350Z,98.61
2019-02-22T06:25:19.339Z,98.66
2019-02-22T06:26:19.406Z,98.71
2019-02-22T06:27:19.339Z,98.51
2019-02-22T06:28:19.319Z,98.71
2019-02-22T06:29:19.335Z,98.51
2019-02-22T06:30:19.279Z,98.30
2019-02-22T06:31:19.272Z,98.61
2019-02-22T06:32:19.296Z,98.20
2019-02-22T06:33:19.252Z,98.82
2019-02-22T06:34:19.236Z,98.82
2019-02-22T06:35:19.241Z,98.10
2019-02-22T06:36:19.348Z,98.71
2019-02-22T06:37:19.213Z,98.51
2019-02-22T06:38:19.357Z,98.10
2019-02-22T06:39:19.215Z,98.71
2019-02-22T06:40:19.180Z,98.71
2019-02-22T06:41:19.189Z,98.30
2019-02-22T06:42:19.143Z,97.99
2019-02-22T06:43:19.179Z,98.10
2019-02-22T06:44:19.127Z,98.10
2019-02-22T06:45:19.130Z,97.99
2019-02-22T06:46:19.110Z,98.41
2019-02-22T06:47:19.138Z,98.41
2019-02-22T06:48:19.078Z,97.99
2019-02-22T06:49:19.080Z,98.20
2019-02-22T06:50:19.058Z,97.99
2019-02-22T06:51:19.051Z,98.10
2019-02-22T06:52:19.041Z,97.99
2019-02-22T06:53:19.047Z,98.20
2019-02-22T06:54:19.014Z,98.41
2019-02-22T06:55:18.998Z,98.10
2019-02-22T06:56:18.998Z,98.92
2019-02-22T06:57:18.986Z,98.30
2019-02-22T06:58:18.985Z,97.99
2019-02-22T06:59:18.981Z,98.61
2019-02-22T07:00:18.964Z,98.61
2019-02-22T07:01:18.939Z,98.30
2019-02-22T07:02:18.930Z,98.82
2019-02-22T07:03:19.090Z,98.10
2019-02-22T07:04:18.902Z,99.02
2019-02-22T07:05:18.970Z,98.82
2019-02-22T07:06:19.065Z,98.82
2019-02-22T07:07:18.875Z,98.41
2019-02-22T07:08:18.862Z,98.82
2019-02-22T07:09:18.926Z,98.82
2019-02-22T07:10:18.840Z,98.30
2019-02-22T07:11:18.885Z,98.30
2019-02-22T07:12:18.826Z,98.30
2019-02-22T07:13:18.818Z,98.77
2019-02-22T07:14:18.791Z,98.61
2019-02-22T07:15:18.870Z,98.87
2019-02-22T07:16:18.810Z,97.89
2019-02-22T07:17:18.756Z,98.10
2019-02-22T07:18:18.748Z,98.20
2019-02-22T07:19:19.713Z,97.85
2019-02-22T07:20:18.752Z,98.10
2019-02-22T07:21:18.719Z,97.85
2019-02-22T07:22:18.777Z,97.74
2019-02-22T07:23:18.724Z,97.99
2019-02-22T07:24:18.681Z,97.99
2019-02-22T07:25:18.731Z,97.85
2019-02-22T07:26:18.667Z,98.10
2019-02-22T07:27:18.648Z,97.74
2019-02-22T07:28:18.635Z,98.05
2019-02-22T07:29:18.628Z,97.99
2019-02-22T07:30:18.656Z,97.85
2019-02-22T07:31:18.626Z,98.05
2019-02-22T07:32:18.621Z,97.85
2019-02-22T07:33:18.624Z,97.89
2019-02-22T07:34:18.567Z,97.85
2019-02-22T07:35:18.553Z,97.85
2019-02-22T07:36:18.599Z,97.85
2019-02-22T07:37:18.558Z,97.85
2019-02-22T07:38:18.529Z,97.85
2019-02-22T07:39:27.313Z,97.85
2019-02-22T07:40:20.083Z,97.85
2019-02-22T07:41:18.495Z,97.58
2019-02-22T07:42:18.537Z,97.54
2019-02-22T07:43:18.492Z,97.95
2019-02-22T07:44:18.469Z,98.16
2019-02-22T07:45:25.537Z,98.05
2019-02-22T07:46:18.429Z,98.16
2019-02-22T07:47:18.450Z,98.36
2019-02-22T07:48:18.411Z,97.64
2019-02-22T07:49:18.464Z,97.85
2019-02-22T07:50:18.393Z,97.85
2019-02-22T07:51:18.376Z,97.95
2019-02-22T07:52:18.482Z,97.85
2019-02-22T07:53:18.354Z,97.95
2019-02-22T07:54:18.366Z,97.74
2019-02-22T07:55:18.334Z,97.64
2019-02-22T07:56:19.186Z,97.95
2019-02-22T07:57:18.328Z,98.05
2019-02-22T07:58:18.304Z,97.85
2019-02-22T07:59:18.285Z,98.05
2019-02-22T08:00:18.298Z,98.05
2019-02-22T08:01:18.274Z,97.95
2019-02-22T08:02:18.264Z,97.95
2019-02-22T08:03:18.269Z,97.95
2019-02-22T08:04:18.239Z,98.16
2019-02-22T08:05:18.250Z,98.05
2019-02-22T08:06:18.224Z,98.16
2019-02-22T08:07:18.201Z,98.11
2019-02-22T08:08:18.400Z,98.16
2019-02-22T08:09:18.183Z,97.85
2019-02-22T08:10:18.164Z,98.00
2019-02-22T08:11:18.306Z,97.80
2019-02-22T08:12:18.147Z,97.70
2019-02-22T08:13:19.944Z,98.00
2019-02-22T08:14:18.126Z,97.70
2019-02-22T08:15:18.110Z,98.00
2019-02-22T08:16:18.100Z,98.00
2019-02-22T08:17:18.091Z,97.91
2019-02-22T08:18:18.083Z,97.80
2019-02-22T08:19:18.233Z,97.80
2019-02-22T08:20:18.055Z,97.91
2019-02-22T08:21:18.043Z,98.21
2019-02-22T08:22:20.654Z,98.52
2019-02-22T08:23:18.044Z,98.21
2019-02-22T08:24:18.015Z,98.42
2019-02-22T08:25:18.006Z,98.11
2019-02-22T08:26:17.997Z,98.11
2019-02-22T08:27:17.994Z,98.00
2019-02-22T08:28:17.971Z,98.00
2019-02-22T08:29:17.983Z,97.86
2019-02-22T08:30:17.975Z,98.37
2019-02-22T08:31:17.948Z,97.80
2019-02-22T08:32:17.922Z,97.86
2019-02-22T08:33:17.928Z,97.75
2019-02-22T08:34:17.922Z,98.11
2019-02-22T08:35:18.053Z,97.75
2019-02-22T08:36:17.895Z,97.55
2019-02-22T08:37:17.868Z,97.86
2019-02-22T08:38:17.981Z,97.45
2019-02-22T08:39:17.843Z,97.75
2019-02-22T08:40:17.872Z,97.75
2019-02-22T08:41:17.841Z,97.45
2019-02-22T08:42:17.809Z,97.04
2019-02-22T08:43:17.802Z,97.65
2019-02-22T08:44:17.792Z,97.34
2019-02-22T08:45:17.778Z,97.55
2019-02-22T08:46:17.782Z,97.55
2019-02-22T08:47:17.752Z,97.65
2019-02-22T08:48:17.754Z,97.65
2019-02-22T08:49:17.735Z,97.45
2019-02-22T08:50:17.755Z,97.34
2019-02-22T08:51:17.713Z,97.61
2019-02-22T08:52:17.698Z,97.55
2019-02-22T08:53:17.720Z,96.94
2019-02-22T08:54:17.823Z,96.99
2019-02-22T08:55:17.658Z,96.99
2019-02-22T08:56:17.652Z,96.99
2019-02-22T08:57:17.670Z,97.30
2019-02-22T08:58:17.631Z,97.20
2019-02-22T08:59:17.640Z,97.09
2019-02-22T09:00:17.604Z,97.50
2019-02-22T09:01:17.598Z,97.20
2019-02-22T09:02:17.631Z,96.74
2019-02-22T09:03:17.579Z,97.20
2019-02-22T09:04:17.567Z,97.09
2019-02-22T09:05:17.632Z,96.84
2019-02-22T09:06:17.546Z,96.54
2019-02-22T09:07:17.540Z,96.54
2019-02-22T09:08:17.519Z,96.54
2019-02-22T09:09:17.530Z,96.23
2019-02-22T09:10:17.500Z,96.49
2019-02-22T09:11:17.485Z,96.59
2019-02-22T09:12:17.471Z,96.54
2019-02-22T09:13:17.459Z,96.59
2019-02-22T09:14:17.460Z,96.95
2019-02-22T09:15:17.475Z,95.82
2019-02-22T09:16:17.452Z,95.88
2019-02-22T09:17:17.421Z,95.98
2019-02-22T09:18:17.528Z,95.98
2019-02-22T09:19:17.406Z,95.47
2019-02-22T09:20:17.477Z,95.32
2019-02-22T09:21:17.504Z,95.57
2019-02-22T09:22:23.018Z,95.63
2019-02-22T09:23:18.353Z,95.53
2019-02-22T09:24:17.339Z,95.12
2019-02-22T09:25:17.325Z,95.32
2019-02-22T09:26:17.330Z,95.22
2019-02-22T09:27:17.420Z,94.40
2019-02-22T09:28:17.289Z,94.20
2019-02-22T09:29:17.278Z,94.46
2019-02-22T09:30:17.269Z,94.30
2019-02-22T09:31:18.252Z,94.40
2019-02-22T09:32:17.282Z,94.15
2019-02-22T09:33:17.284Z,93.65
2019-02-22T09:34:17.253Z,93.50
2019-02-22T09:35:17.214Z,93.40
2019-02-22T09:36:17.223Z,93.29
2019-02-22T09:37:17.388Z,93.29
2019-02-22T09:38:17.190Z,93.91
2019-02-22T09:39:17.176Z,93.09
2019-02-22T09:40:17.174Z,92.64
2019-02-22T09:41:17.147Z,92.58
2019-02-22T09:42:17.138Z,91.76
2019-02-22T09:43:17.156Z,91.86
2019-02-22T09:44:17.143Z,92.33
2019-02-22T09:45:17.131Z,91.41
2019-02-22T09:46:17.099Z,91.72
2019-02-22T09:47:17.091Z,91.31
2019-02-22T09:48:17.139Z,91.61
2019-02-22T09:49:17.109Z,91.31
2019-02-22T09:50:17.076Z,91.11
2019-02-22T09:51:17.033Z,91.52
2019-02-22T09:52:17.021Z,91.72
2019-02-22T09:53:17.023Z,91.72
2019-02-22T09:54:17.027Z,91.78
2019-02-22T09:55:16.997Z,91.06
2019-02-22T09:56:17.031Z,90.96
2019-02-22T09:57:16.964Z,90.45
2019-02-22T09:58:16.955Z,90.04
2019-02-22T09:59:16.947Z,89.79
2019-02-22T10:00:16.954Z,89.63
2019-02-22T10:01:17.160Z,90.04
2019-02-22T10:02:16.911Z,90.25
2019-02-22T10:03:16.905Z,89.94
2019-02-22T10:04:16.966Z,90.45
2019-02-22T10:05:16.881Z,90.14
2019-02-22T10:06:16.876Z,89.94
2019-02-22T10:07:16.905Z,89.28
2019-02-22T10:08:16.876Z,89.59
2019-02-22T10:09:16.837Z,89.63
2019-02-22T10:10:16.822Z,89.63
2019-02-22T10:11:16.829Z,89.59
2019-02-22T10:12:16.799Z,89.90
2019-02-22T10:13:16.791Z,89.39
2019-02-22T10:14:16.800Z,88.78
2019-02-22T10:15:16.781Z,88.78
2019-02-22T10:16:16.767Z,88.57
2019-02-22T10:17:16.746Z,88.37
2019-02-22T10:18:16.729Z,88.26
2019-02-22T10:19:16.760Z,88.37
2019-02-22T10:20:16.780Z,87.35
2019-02-22T10:21:16.736Z,86.94
2019-02-22T10:22:16.683Z,86.59
2019-02-22T10:23:16.683Z,86.83
2019-02-22T10:24:16.675Z,86.63
2019-02-22T10:25:16.688Z,86.83
2019-02-22T10:26:16.648Z,86.94
2019-02-22T10:27:16.636Z,87.35
2019-02-22T10:28:18.067Z,86.53
2019-02-22T10:29:16.615Z,85.57
2019-02-22T10:30:16.632Z,85.92
2019-02-22T10:31:16.618Z,85.47
2019-02-22T10:32:16.591Z,85.47
2019-02-22T10:33:16.559Z,85.27
2019-02-22T10:34:16.549Z,84.75
2019-02-22T10:35:16.553Z,84.86
2019-02-22T10:36:16.562Z,84.86
2019-02-22T10:37:16.517Z,85.43
2019-02-22T10:38:16.508Z,85.13
2019-02-22T10:39:16.494Z,85.43
2019-02-22T10:40:16.511Z,84.72
2019-02-22T10:41:16.635Z,84.61
2019-02-22T10:42:16.463Z,84.58
2019-02-22T10:43:16.473Z,84.72
2019-02-22T10:44:17.971Z,84.78
2019-02-22T10:45:16.468Z,83.96
2019-02-22T10:46:16.425Z,83.96
2019-02-22T10:47:16.426Z,84.06
2019-02-22T10:48:16.414Z,83.56
2019-02-22T10:49:16.412Z,82.84
2019-02-22T10:50:16.387Z,82.74
2019-02-22T10:51:16.377Z,82.74
2019-02-22T10:52:16.357Z,82.54
2019-02-22T10:53:16.443Z,82.64
2019-02-22T10:54:16.326Z,82.64
2019-02-22T10:55:16.326Z,81.93
2019-02-22T10:56:16.309Z,82.13
2019-02-22T10:57:16.297Z,81.93
2019-02-22T10:58:16.292Z,81.82
2019-02-22T10:59:16.290Z,81.93
2019-02-22T11:00:16.290Z,81.62
2019-02-22T11:01:16.362Z,81.82
2019-02-22T11:02:16.243Z,81.93
2019-02-22T11:03:16.231Z,81.52
2019-02-22T11:04:16.303Z,81.72
2019-02-22T11:05:16.210Z,81.72
2019-02-22T11:06:16.223Z,81.52
2019-02-22T11:07:16.203Z,82.13
2019-02-22T11:08:16.174Z,82.03
2019-02-22T11:09:16.170Z,81.93
2019-02-22T11:10:16.221Z,80.87
2019-02-22T11:11:16.153Z,81.27
2019-02-22T11:12:16.160Z,81.58
2019-02-22T11:13:16.113Z,81.48
2019-02-22T11:14:16.109Z,80.56
2019-02-22T11:15:16.094Z,80.77
2019-02-22T11:16:16.129Z,81.17
2019-02-22T11:17:16.164Z,81.24
2019-02-22T11:18:16.071Z,81.27
2019-02-22T11:19:16.056Z,80.56
2019-02-22T11:20:16.110Z,80.22
2019-02-22T11:21:16.027Z,80.56
2019-02-22T11:22:16.056Z,79.81
2019-02-22T11:23:16.003Z,80.05
2019-02-22T11:24:15.991Z,79.54
2019-02-22T11:25:15.980Z,79.54
2019-02-22T11:26:15.978Z,78.22
2019-02-22T11:27:15.982Z,77.30
2019-02-22T11:28:15.992Z,76.69
2019-02-22T11:29:15.936Z,77.10
2019-02-22T11:30:15.936Z,77.40
2019-02-22T11:31:17.365Z,76.69
2019-02-22T11:32:15.915Z,76.49
2019-02-22T11:33:16.139Z,76.22
2019-02-22T11:34:15.890Z,75.98
2019-02-22T11:35:15.870Z,75.98
2019-02-22T11:36:15.988Z,75.67
2019-02-22T11:37:15.871Z,76.49
2019-02-22T11:38:15.869Z,76.39
2019-02-22T11:39:15.870Z,76.69
2019-02-22T11:40:15.814Z,76.79
2019-02-22T11:41:15.829Z,76.49
2019-02-22T11:42:15.805Z,76.08
2019-02-22T11:43:15.796Z,75.67
2019-02-22T11:44:15.856Z,75.47
2019-02-22T11:45:15.791Z,75.37
2019-02-22T11:46:15.753Z,74.04
2019-02-22T11:47:15.752Z,74.35
2019-02-22T11:48:15.733Z,74.76
2019-02-22T11:49:15.727Z,74.76
2019-02-22T11:50:15.705Z,75.27
2019-02-22T11:51:15.718Z,74.96
2019-02-22T11:52:15.688Z,75.54
2019-02-22T11:53:15.674Z,74.86
2019-02-22T11:54:15.659Z,75.27
2019-02-22T11:55:15.668Z,75.13
2019-02-22T11:56:15.640Z,75.67
2019-02-22T11:57:15.634Z,75.54
2019-02-22T11:58:15.667Z,74.82
2019-02-22T11:59:15.628Z,74.32
2019-02-22T12:00:15.699Z,74.58
2019-02-22T12:01:15.641Z,74.72
2019-02-22T12:02:15.570Z,74.72
2019-02-22T12:03:24.225Z,74.58
2019-02-22T12:04:16.552Z,73.97
2019-02-22T12:05:15.551Z,74.38
2019-02-22T12:06:15.544Z,74.28
2019-02-22T12:07:15.546Z,74.58
2019-02-22T12:08:15.529Z,74.28
2019-02-22T12:09:15.497Z,72.96
2019-02-22T12:10:15.479Z,73.26
2019-02-22T12:11:15.477Z,72.96
2019-02-22T12:12:15.490Z,71.77
2019-02-22T12:13:15.455Z,72.34
2019-02-22T12:14:15.446Z,72.38
2019-02-22T12:15:15.422Z,72.28
2019-02-22T12:16:15.599Z,72.28
2019-02-22T12:17:15.406Z,72.28
2019-02-22T12:18:15.389Z,72.38
2019-02-22T12:19:15.435Z,72.38
2019-02-22T12:20:15.367Z,71.73
2019-02-22T12:21:15.388Z,71.84
2019-02-22T12:22:15.345Z,71.94
2019-02-22T12:23:15.345Z,70.62
2019-02-22T12:24:15.321Z,71.53
2019-02-22T12:25:15.354Z,70.79
2019-02-22T12:26:15.298Z,71.06
2019-02-22T12:27:15.315Z,70.31
2019-02-22T12:28:15.282Z,69.57
2019-02-22T12:29:15.296Z,67.94
2019-02-22T12:30:15.258Z,66.12
2019-02-22T12:31:15.261Z,64.90
2019-02-22T12:32:15.238Z,65.81
2019-02-22T12:33:15.227Z,65.44
2019-02-22T12:34:15.249Z,64.62
2019-02-22T12:35:15.240Z,64.42
2019-02-22T12:36:15.185Z,65.74
2019-02-22T12:37:15.200Z,66.46
2019-02-22T12:38:15.185Z,67.06
2019-02-22T12:39:15.188Z,67.16
2019-02-22T12:40:15.802Z,67.88
2019-02-22T12:41:15.155Z,67.57
2019-02-22T12:42:15.126Z,67.06
2019-02-22T12:43:15.145Z,67.57
2019-02-22T12:44:15.097Z,67.27
2019-02-22T12:45:15.122Z,67.27
2019-02-22T12:46:15.073Z,66.80
2019-02-22T12:47:15.070Z,65.82
2019-02-22T12:48:15.047Z,64.44
2019-02-22T12:49:15.041Z,62.69
2019-02-22T12:50:15.036Z,61.52
2019-02-22T12:51:15.042Z,61.39
2019-02-22T12:52:15.028Z,60.85